createdAt,value
2018-03-30T00:00:22.911Z,16.55
2018-03-30T00:00:54.573Z,16.58
2018-03-30T00:01:44.936Z,17.23
2018-03-30T00:02:16.627Z,16.20
2018-03-30T00:02:48.256Z,16.30
2018-03-30T00:03:19.882Z,16.80
2018-03-30T00:03:51.532Z,17.67
2018-03-30T00:04:23.228Z,16.92
2018-03-30T00:04:54.888Z,16.33
2018-03-30T00:05:26.577Z,17.05
2018-03-30T00:05:58.232Z,16.30
2018-03-30T00:06:29.869Z,16.77
2018-03-30T00:07:05.684Z,17.65
2018-03-30T00:07:37.329Z,17.30
2018-03-30T00:08:08.979Z,16.35
2018-03-30T00:08:40.701Z,17.50
2018-03-30T00:09:30.769Z,16.95
2018-03-30T00:10:02.389Z,16.12
2018-03-30T00:10:40.162Z,15.40
2018-03-30T00:11:11.829Z,15.07
2018-03-30T00:11:43.484Z,16.50
2018-03-30T00:12:15.139Z,16.40
2018-03-30T00:12:46.772Z,16.67
2018-03-30T00:13:18.421Z,16.48
2018-03-30T00:13:50.045Z,15.40
2018-03-30T00:14:21.685Z,15.82
2018-03-30T00:14:53.307Z,15.93
2018-03-30T00:15:24.929Z,16.67
2018-03-30T00:15:56.557Z,16.30
2018-03-30T00:16:28.172Z,15.60
2018-03-30T00:16:59.807Z,18.17
2018-03-30T00:17:31.420Z,16.52
2018-03-30T00:18:03.071Z,16.30
2018-03-30T00:18:34.697Z,14.75
2018-03-30T00:19:06.339Z,17.30
2018-03-30T00:19:37.992Z,16.65
2018-03-30T00:20:09.639Z,17.25
2018-03-30T00:20:41.269Z,15.68
2018-03-30T00:21:12.901Z,16.65
2018-03-30T00:21:52.373Z,16.80
2018-03-30T00:22:24.004Z,14.30
2018-03-30T00:22:55.675Z,15.82
2018-03-30T00:23:27.321Z,15.00
2018-03-30T00:23:58.964Z,14.65
2018-03-30T00:24:30.565Z,15.18
2018-03-30T00:25:02.242Z,15.07
2018-03-30T00:25:33.870Z,15.77
2018-03-30T00:26:05.497Z,14.77
2018-03-30T00:26:37.190Z,15.18
2018-03-30T00:27:08.803Z,14.63
2018-03-30T00:27:40.431Z,15.25
2018-03-30T00:28:12.060Z,15.73
2018-03-30T00:28:43.716Z,14.30
2018-03-30T00:29:15.344Z,14.85
2018-03-30T00:29:46.976Z,15.02
2018-03-30T00:30:18.592Z,16.08
2018-03-30T00:30:50.231Z,15.48
2018-03-30T00:31:21.852Z,12.52
2018-03-30T00:31:53.490Z,14.55
2018-03-30T00:32:25.191Z,15.73
2018-03-30T00:32:56.817Z,15.45
2018-03-30T00:33:28.483Z,15.02
2018-03-30T00:34:00.128Z,15.15
2018-03-30T00:34:31.760Z,14.95
2018-03-30T00:35:03.405Z,15.13
2018-03-30T00:35:35.089Z,15.65
2018-03-30T00:36:06.699Z,15.38
2018-03-30T00:36:38.352Z,14.75
2018-03-30T00:37:10.013Z,12.90
2018-03-30T00:37:41.629Z,15.63
2018-03-30T00:38:13.335Z,16.12
2018-03-30T00:38:44.952Z,14.38
2018-03-30T00:39:16.604Z,14.43
2018-03-30T00:39:48.245Z,14.63
2018-03-30T00:40:19.876Z,16.12
2018-03-30T00:40:51.517Z,16.05
2018-03-30T00:41:23.182Z,14.38
2018-03-30T00:41:54.804Z,15.23
2018-03-30T00:42:26.444Z,14.68
2018-03-30T00:42:58.115Z,15.18
2018-03-30T00:43:29.714Z,15.40
2018-03-30T00:44:01.350Z,15.65
2018-03-30T00:44:32.973Z,16.45
2018-03-30T00:45:04.603Z,16.02
2018-03-30T00:45:36.269Z,16.75
2018-03-30T00:46:07.917Z,15.82
2018-03-30T00:46:39.586Z,15.82
2018-03-30T00:47:11.241Z,15.82
2018-03-30T00:47:42.898Z,14.63
2018-03-30T00:48:14.560Z,15.85
2018-03-30T00:48:46.221Z,15.05
2018-03-30T00:49:17.844Z,16.10
2018-03-30T00:49:49.480Z,15.45
2018-03-30T00:50:21.150Z,16.45
2018-03-30T00:50:52.775Z,15.07
2018-03-30T00:51:24.489Z,15.95
2018-03-30T00:51:56.129Z,16.70
2018-03-30T00:52:27.770Z,16.60
2018-03-30T00:52:59.437Z,16.08
2018-03-30T00:53:46.188Z,14.85
2018-03-30T00:54:17.826Z,15.50
2018-03-30T00:54:49.452Z,15.30
2018-03-30T00:55:21.093Z,13.70
2018-03-30T00:55:52.761Z,14.38
2018-03-30T00:56:24.398Z,15.13
2018-03-30T00:56:56.065Z,15.90
2018-03-30T00:57:27.712Z,16.25
2018-03-30T00:57:59.375Z,15.80
2018-03-30T00:58:31.076Z,15.98
2018-03-30T00:59:02.736Z,13.98
2018-03-30T00:59:34.418Z,14.98
2018-03-30T01:00:06.100Z,15.32
2018-03-30T01:00:37.759Z,15.43
2018-03-30T01:01:09.413Z,15.70
2018-03-30T01:01:41.062Z,15.60
2018-03-30T01:02:12.715Z,15.50
2018-03-30T01:02:44.413Z,14.60
2018-03-30T01:03:16.093Z,15.80
2018-03-30T01:03:47.720Z,14.85
2018-03-30T01:04:19.368Z,15.98
2018-03-30T01:04:51.018Z,14.50
2018-03-30T01:05:22.641Z,16.15
2018-03-30T01:05:54.296Z,14.57
2018-03-30T01:06:25.928Z,14.50
2018-03-30T01:06:57.724Z,15.75
2018-03-30T01:07:29.429Z,15.55
2018-03-30T01:08:01.057Z,15.43
2018-03-30T01:08:32.720Z,15.00
2018-03-30T01:09:04.400Z,14.43
2018-03-30T01:09:36.068Z,14.70
2018-03-30T01:10:07.777Z,14.80
2018-03-30T01:10:39.415Z,14.20
2018-03-30T01:11:11.089Z,14.15
2018-03-30T01:11:42.745Z,13.75
2018-03-30T01:12:14.394Z,12.65
2018-03-30T01:12:46.018Z,13.90
2018-03-30T01:13:17.634Z,14.15
2018-03-30T01:13:49.300Z,13.98
2018-03-30T01:14:21.010Z,13.38
2018-03-30T01:14:52.643Z,13.82
2018-03-30T01:15:24.312Z,13.70
2018-03-30T01:15:55.931Z,13.93
2018-03-30T01:16:27.570Z,14.27
2018-03-30T01:16:59.208Z,12.80
2018-03-30T01:17:30.836Z,13.00
2018-03-30T01:18:02.497Z,14.25
2018-03-30T01:18:34.177Z,13.88
2018-03-30T01:19:05.927Z,14.30
2018-03-30T01:19:37.564Z,13.90
2018-03-30T01:20:09.224Z,13.55
2018-03-30T01:20:40.900Z,13.50
2018-03-30T01:21:12.540Z,14.00
2018-03-30T01:21:44.198Z,12.95
2018-03-30T01:22:15.843Z,13.45
2018-03-30T01:22:47.486Z,13.77
2018-03-30T01:23:19.128Z,13.80
2018-03-30T01:23:50.827Z,14.85
2018-03-30T01:24:22.475Z,13.95
2018-03-30T01:24:54.160Z,14.70
2018-03-30T01:25:25.817Z,13.90
2018-03-30T01:25:57.484Z,13.82
2018-03-30T01:26:29.152Z,14.90
2018-03-30T01:27:00.761Z,14.80
2018-03-30T01:27:32.417Z,13.95
2018-03-30T01:28:04.097Z,13.45
2018-03-30T01:28:35.786Z,14.52
2018-03-30T01:29:07.416Z,14.15
2018-03-30T01:29:39.085Z,14.50
2018-03-30T01:30:10.739Z,15.02
2018-03-30T01:30:42.422Z,15.18
2018-03-30T01:31:14.064Z,14.68
2018-03-30T01:31:45.702Z,13.90
2018-03-30T01:32:17.385Z,14.20
2018-03-30T01:32:49.007Z,13.60
2018-03-30T01:33:20.660Z,15.15
2018-03-30T01:33:52.292Z,13.98
2018-03-30T01:34:23.909Z,14.55
2018-03-30T01:34:55.543Z,13.95
2018-03-30T01:35:27.191Z,14.85
2018-03-30T01:35:58.800Z,14.98
2018-03-30T01:36:30.421Z,13.27
2018-03-30T01:37:02.129Z,13.50
2018-03-30T01:37:33.752Z,14.18
2018-03-30T01:38:05.411Z,13.68
2018-03-30T01:38:37.083Z,13.35
2018-03-30T01:39:08.739Z,13.70
2018-03-30T01:39:40.356Z,13.55
2018-03-30T01:40:11.973Z,13.80
2018-03-30T01:40:43.621Z,13.93
2018-03-30T01:41:15.230Z,12.68
2018-03-30T01:41:46.881Z,13.40
2018-03-30T01:42:18.533Z,13.48
2018-03-30T01:42:50.168Z,12.70
2018-03-30T01:43:21.842Z,13.57
2018-03-30T01:43:53.456Z,13.40
2018-03-30T01:44:25.124Z,12.98
2018-03-30T01:44:56.767Z,12.63
2018-03-30T01:45:28.440Z,12.07
2018-03-30T01:46:00.065Z,14.35
2018-03-30T01:46:31.702Z,13.27
2018-03-30T01:47:03.396Z,12.73
2018-03-30T01:47:35.068Z,11.98
2018-03-30T01:48:06.685Z,12.73
2018-03-30T01:48:38.318Z,14.27
2018-03-30T01:49:09.982Z,13.62
2018-03-30T01:49:41.691Z,13.75
2018-03-30T01:50:13.314Z,13.10
2018-03-30T01:50:44.938Z,13.00
2018-03-30T01:51:16.617Z,13.68
2018-03-30T01:51:48.220Z,14.35
2018-03-30T01:52:19.930Z,13.88
2018-03-30T01:52:51.563Z,13.60
2018-03-30T01:53:23.229Z,13.48
2018-03-30T01:53:54.852Z,13.80
2018-03-30T01:54:26.476Z,13.40
2018-03-30T01:54:58.115Z,14.10
2018-03-30T01:55:29.768Z,13.43
2018-03-30T01:56:01.448Z,14.15
2018-03-30T01:56:33.114Z,12.75
2018-03-30T01:57:04.713Z,13.70
2018-03-30T01:57:36.358Z,13.23
2018-03-30T01:58:08.032Z,13.82
2018-03-30T01:58:39.660Z,13.00
2018-03-30T01:59:11.306Z,12.85
2018-03-30T01:59:42.916Z,12.57
2018-03-30T02:00:14.550Z,12.85
2018-03-30T02:00:46.230Z,13.13
2018-03-30T02:01:17.874Z,13.45
2018-03-30T02:01:49.552Z,12.05
2018-03-30T02:02:21.169Z,13.77
2018-03-30T02:02:52.793Z,12.80
2018-03-30T02:03:24.426Z,12.23
2018-03-30T02:03:56.077Z,13.02
2018-03-30T02:04:27.729Z,13.62
2018-03-30T02:04:59.376Z,13.52
2018-03-30T02:05:31.013Z,12.57
2018-03-30T02:06:02.667Z,12.98
2018-03-30T02:06:34.301Z,12.82
2018-03-30T02:07:05.944Z,13.07
2018-03-30T02:07:37.615Z,13.35
2018-03-30T02:08:09.283Z,13.80
2018-03-30T02:08:40.928Z,12.98
2018-03-30T02:09:12.561Z,13.75
2018-03-30T02:09:44.203Z,13.52
2018-03-30T02:10:15.857Z,13.23
2018-03-30T02:10:47.510Z,12.55
2018-03-30T02:11:19.140Z,13.88
2018-03-30T02:11:50.792Z,13.15
2018-03-30T02:12:22.443Z,14.57
2018-03-30T02:12:54.065Z,13.68
2018-03-30T02:13:25.705Z,13.80
2018-03-30T02:13:57.364Z,14.13
2018-03-30T02:14:29.003Z,15.18
2018-03-30T02:15:00.632Z,14.02
2018-03-30T02:15:32.269Z,14.23
2018-03-30T02:16:03.963Z,15.43
2018-03-30T02:16:35.620Z,14.85
2018-03-30T02:17:07.242Z,14.87
2018-03-30T02:17:38.932Z,14.68
2018-03-30T02:18:10.598Z,15.82
2018-03-30T02:18:42.269Z,14.35
2018-03-30T02:19:13.901Z,15.15
2018-03-30T02:19:45.538Z,15.02
2018-03-30T02:20:17.144Z,15.77
2018-03-30T02:20:48.757Z,13.82
2018-03-30T02:21:20.428Z,14.57
2018-03-30T02:21:52.048Z,15.80
2018-03-30T02:22:23.674Z,16.05
2018-03-30T02:22:55.310Z,15.30
2018-03-30T02:23:26.912Z,14.43
2018-03-30T02:23:58.562Z,15.15
2018-03-30T02:24:30.187Z,15.48
2018-03-30T02:25:01.835Z,16.48
2018-03-30T02:25:33.474Z,15.50
2018-03-30T02:26:05.128Z,15.27
2018-03-30T02:26:36.765Z,16.90
2018-03-30T02:27:08.414Z,15.23
2018-03-30T02:27:40.021Z,15.90
2018-03-30T02:28:11.646Z,16.15
2018-03-30T02:28:43.260Z,15.15
2018-03-30T02:29:14.912Z,16.55
2018-03-30T02:29:46.528Z,15.23
2018-03-30T02:30:18.178Z,16.15
2018-03-30T02:30:49.828Z,16.25
2018-03-30T02:31:21.451Z,16.23
2018-03-30T02:31:53.073Z,17.10
2018-03-30T02:32:24.692Z,16.50
2018-03-30T02:32:56.324Z,15.77
2018-03-30T02:33:27.943Z,16.60
2018-03-30T02:33:59.556Z,15.88
2018-03-30T02:34:31.221Z,15.77
2018-03-30T02:35:02.875Z,17.08
2018-03-30T02:35:34.573Z,16.00
2018-03-30T02:36:06.243Z,15.18
2018-03-30T02:36:37.881Z,15.68
2018-03-30T02:37:09.511Z,16.25
2018-03-30T02:37:41.144Z,17.17
2018-03-30T02:38:12.820Z,17.45
2018-03-30T02:38:44.432Z,17.00
2018-03-30T02:39:16.057Z,15.77
2018-03-30T02:39:47.692Z,16.55
2018-03-30T02:40:19.343Z,16.77
2018-03-30T02:40:51.005Z,16.92
2018-03-30T02:41:22.626Z,17.20
2018-03-30T02:41:54.273Z,16.65
2018-03-30T02:42:25.933Z,16.98
2018-03-30T02:42:57.571Z,16.98
2018-03-30T02:43:29.202Z,17.15
2018-03-30T02:44:00.849Z,17.30
2018-03-30T02:44:32.511Z,16.75
2018-03-30T02:45:04.167Z,15.95
2018-03-30T02:45:35.801Z,16.35
2018-03-30T02:46:07.417Z,17.67
2018-03-30T02:46:39.057Z,16.98
2018-03-30T02:47:10.684Z,17.40
2018-03-30T02:47:42.370Z,16.92
2018-03-30T02:48:14.019Z,17.50
2018-03-30T02:48:45.705Z,16.83
2018-03-30T02:49:17.340Z,16.98
2018-03-30T02:49:48.961Z,17.77
2018-03-30T02:50:20.566Z,17.75
2018-03-30T02:50:52.221Z,18.83
2018-03-30T02:51:23.863Z,18.17
2018-03-30T02:51:55.489Z,18.92
2018-03-30T02:52:27.099Z,17.95
2018-03-30T02:52:58.741Z,19.52
2018-03-30T02:53:30.367Z,18.67
2018-03-30T02:54:02.004Z,20.50
2018-03-30T02:54:33.652Z,18.83
2018-03-30T02:55:05.299Z,19.15
2018-03-30T02:55:36.973Z,19.85
2018-03-30T02:56:08.615Z,20.12
2018-03-30T02:56:40.229Z,20.37
2018-03-30T02:57:11.892Z,20.95
2018-03-30T02:57:43.532Z,20.80
2018-03-30T02:58:15.196Z,18.83
2018-03-30T02:58:46.878Z,20.37
2018-03-30T02:59:18.517Z,20.45
2018-03-30T02:59:50.154Z,19.40
2018-03-30T03:00:21.821Z,20.15
2018-03-30T03:00:53.489Z,19.50
2018-03-30T03:01:25.146Z,20.50
2018-03-30T03:01:56.809Z,20.37
2018-03-30T03:02:28.413Z,20.37
2018-03-30T03:03:00.062Z,20.83
2018-03-30T03:03:31.765Z,20.95
2018-03-30T03:04:03.401Z,20.42
2018-03-30T03:04:35.081Z,20.25
2018-03-30T03:05:06.743Z,20.50
2018-03-30T03:05:38.386Z,20.80
2018-03-30T03:06:10.030Z,20.62
2018-03-30T03:06:41.723Z,20.37
2018-03-30T03:07:13.361Z,21.33
2018-03-30T03:07:45.012Z,21.37
2018-03-30T03:08:16.603Z,21.35
2018-03-30T03:08:48.228Z,21.10
2018-03-30T03:09:19.844Z,22.45
2018-03-30T03:09:51.484Z,22.15
2018-03-30T03:10:23.090Z,21.05
2018-03-30T03:10:54.701Z,20.77
2018-03-30T03:11:26.340Z,23.50
2018-03-30T03:11:57.947Z,22.30
2018-03-30T03:12:29.614Z,21.65
2018-03-30T03:13:01.249Z,20.90
2018-03-30T03:13:32.864Z,21.85
2018-03-30T03:14:04.568Z,23.23
2018-03-30T03:14:36.280Z,21.92
2018-03-30T03:15:07.932Z,22.87
2018-03-30T03:15:39.562Z,21.00
2018-03-30T03:16:11.177Z,20.73
2018-03-30T03:16:42.826Z,21.58
2018-03-30T03:17:14.451Z,20.67
2018-03-30T03:17:46.082Z,22.17
2018-03-30T03:18:17.702Z,22.73
2018-03-30T03:18:49.324Z,21.23
2018-03-30T03:19:20.958Z,22.40
2018-03-30T03:19:52.616Z,21.87
2018-03-30T03:20:24.259Z,23.02
2018-03-30T03:20:55.898Z,23.62
2018-03-30T03:21:27.516Z,22.20
2018-03-30T03:21:59.154Z,21.17
2018-03-30T03:22:30.789Z,20.27
2018-03-30T03:23:02.446Z,23.20
2018-03-30T03:23:34.063Z,23.02
2018-03-30T03:24:05.733Z,23.80
2018-03-30T03:24:37.425Z,23.38
2018-03-30T03:25:09.091Z,24.55
2018-03-30T03:25:40.748Z,22.60
2018-03-30T03:26:12.370Z,23.55
2018-03-30T03:26:44.048Z,23.52
2018-03-30T03:27:15.692Z,24.50
2018-03-30T03:27:47.342Z,23.10
2018-03-30T03:28:18.996Z,22.98
2018-03-30T03:28:50.668Z,22.48
2018-03-30T03:29:22.281Z,23.08
2018-03-30T03:29:53.920Z,22.92
2018-03-30T03:30:25.545Z,23.05
2018-03-30T03:30:57.183Z,23.77
2018-03-30T03:31:28.855Z,23.83
2018-03-30T03:32:00.468Z,23.20
2018-03-30T03:32:32.086Z,24.70
2018-03-30T03:33:03.778Z,24.15
2018-03-30T03:33:35.394Z,23.38
2018-03-30T03:34:07.040Z,23.70
2018-03-30T03:34:38.674Z,23.42
2018-03-30T03:35:10.340Z,24.87
2018-03-30T03:35:41.966Z,24.65
2018-03-30T03:36:13.607Z,25.10
2018-03-30T03:36:45.216Z,24.42
2018-03-30T03:37:16.828Z,24.48
2018-03-30T03:37:48.495Z,24.60
2018-03-30T03:38:20.104Z,24.27
2018-03-30T03:38:51.743Z,24.40
2018-03-30T03:39:23.352Z,25.42
2018-03-30T03:39:54.970Z,24.17
2018-03-30T03:40:26.629Z,25.62
2018-03-30T03:40:58.263Z,25.30
2018-03-30T03:41:29.906Z,24.50
2018-03-30T03:42:01.552Z,23.12
2018-03-30T03:42:33.163Z,27.37
2018-03-30T03:43:04.806Z,25.02
2018-03-30T03:43:36.411Z,26.10
2018-03-30T03:44:08.074Z,25.62
2018-03-30T03:44:39.708Z,24.23
2018-03-30T03:45:11.364Z,26.05
2018-03-30T03:45:43.030Z,26.05
2018-03-30T03:46:14.668Z,26.02
2018-03-30T03:46:46.312Z,24.95
2018-03-30T03:47:17.944Z,25.67
2018-03-30T03:47:49.566Z,24.85
2018-03-30T03:48:21.204Z,25.60
2018-03-30T03:48:52.850Z,25.73
2018-03-30T03:49:24.523Z,26.02
2018-03-30T03:49:56.199Z,25.75
2018-03-30T03:50:27.887Z,24.30
2018-03-30T03:50:59.528Z,24.52
2018-03-30T03:51:31.138Z,24.92
2018-03-30T03:52:02.842Z,24.85
2018-03-30T03:52:34.495Z,25.25
2018-03-30T03:53:06.162Z,25.73
2018-03-30T03:53:37.826Z,26.52
2018-03-30T03:54:09.448Z,25.48
2018-03-30T03:54:41.117Z,27.55
2018-03-30T03:55:12.752Z,26.15
2018-03-30T03:55:44.381Z,27.00
2018-03-30T03:56:16.008Z,24.37
2018-03-30T03:56:47.642Z,25.75
2018-03-30T03:57:19.258Z,26.52
2018-03-30T03:57:50.882Z,26.77
2018-03-30T03:58:22.516Z,24.48
2018-03-30T03:58:54.150Z,26.35
2018-03-30T03:59:25.792Z,25.50
2018-03-30T03:59:57.482Z,24.33
2018-03-30T04:00:29.114Z,25.00
2018-03-30T04:01:00.746Z,25.05
2018-03-30T04:01:32.400Z,26.10
2018-03-30T04:02:04.047Z,24.63
2018-03-30T04:02:35.715Z,24.87
2018-03-30T04:03:07.331Z,24.20
2018-03-30T04:03:38.970Z,23.85
2018-03-30T04:04:10.625Z,25.30
2018-03-30T04:04:42.257Z,25.35
2018-03-30T04:05:13.915Z,23.27
2018-03-30T04:05:45.560Z,23.95
2018-03-30T04:06:17.193Z,24.45
2018-03-30T04:06:48.836Z,24.87
2018-03-30T04:07:20.469Z,24.27
2018-03-30T04:07:55.468Z,25.33
2018-03-30T04:08:27.101Z,24.48
2018-03-30T04:08:58.724Z,23.58
2018-03-30T04:09:30.390Z,24.95
2018-03-30T04:10:02.024Z,23.77
2018-03-30T04:10:33.694Z,24.92
2018-03-30T04:11:05.322Z,23.50
2018-03-30T04:11:36.970Z,24.50
2018-03-30T04:12:08.626Z,23.95
2018-03-30T04:12:40.250Z,24.80
2018-03-30T04:13:11.899Z,23.58
2018-03-30T04:13:43.560Z,23.65
2018-03-30T04:14:15.234Z,23.38
2018-03-30T04:14:46.853Z,22.10
2018-03-30T04:15:18.484Z,23.23
2018-03-30T04:15:50.140Z,22.85
2018-03-30T04:16:21.799Z,23.73
2018-03-30T04:16:53.435Z,23.95
2018-03-30T04:17:25.065Z,23.55
2018-03-30T04:17:56.752Z,25.85
2018-03-30T04:18:28.368Z,23.65
2018-03-30T04:19:00.028Z,24.25
2018-03-30T04:19:31.649Z,24.30
2018-03-30T04:20:03.283Z,22.98
2018-03-30T04:20:34.950Z,25.02
2018-03-30T04:21:06.606Z,23.52
2018-03-30T04:21:38.228Z,23.02
2018-03-30T04:22:09.900Z,22.55
2018-03-30T04:22:41.565Z,25.45
2018-03-30T04:23:13.268Z,23.45
2018-03-30T04:23:44.953Z,24.23
2018-03-30T04:24:16.587Z,24.12
2018-03-30T04:24:48.229Z,25.73
2018-03-30T04:25:19.854Z,23.75
2018-03-30T04:25:51.464Z,22.37
2018-03-30T04:26:23.134Z,23.80
2018-03-30T04:26:54.766Z,23.58
2018-03-30T04:27:30.386Z,24.17
2018-03-30T04:28:02.027Z,23.90
2018-03-30T04:28:33.663Z,22.62
2018-03-30T04:29:05.296Z,22.75
2018-03-30T04:29:36.967Z,24.33
2018-03-30T04:30:08.609Z,23.77
2018-03-30T04:30:40.237Z,23.92
2018-03-30T04:31:11.866Z,23.35
2018-03-30T04:31:43.556Z,23.05
2018-03-30T04:32:15.189Z,23.02
2018-03-30T04:32:46.817Z,22.98
2018-03-30T04:33:18.454Z,23.58
2018-03-30T04:33:50.099Z,23.65
2018-03-30T04:34:21.722Z,22.25
2018-03-30T04:34:53.366Z,22.83
2018-03-30T04:35:25.009Z,22.80
2018-03-30T04:35:56.684Z,23.05
2018-03-30T04:36:28.310Z,23.58
2018-03-30T04:37:00.026Z,23.10
2018-03-30T04:37:31.678Z,23.15
2018-03-30T04:38:03.363Z,22.75
2018-03-30T04:38:34.995Z,23.77
2018-03-30T04:39:06.686Z,23.02
2018-03-30T04:39:38.349Z,23.87
2018-03-30T04:40:10.005Z,23.80
2018-03-30T04:40:41.634Z,23.02
2018-03-30T04:41:13.247Z,21.87
2018-03-30T04:41:44.915Z,23.02
2018-03-30T04:42:16.542Z,23.58
2018-03-30T04:42:48.168Z,23.15
2018-03-30T04:43:19.844Z,23.87
2018-03-30T04:43:51.472Z,21.87
2018-03-30T04:44:23.127Z,22.30
2018-03-30T04:44:54.747Z,24.05
2018-03-30T04:45:26.382Z,23.62
2018-03-30T04:45:58.031Z,22.83
2018-03-30T04:46:29.697Z,23.20
2018-03-30T04:47:01.364Z,23.75
2018-03-30T04:47:33.030Z,23.83
2018-03-30T04:48:04.655Z,22.70
2018-03-30T04:48:36.290Z,22.92
2018-03-30T04:49:07.921Z,23.62
2018-03-30T04:49:39.533Z,21.80
2018-03-30T04:50:11.182Z,22.25
2018-03-30T04:50:42.829Z,21.65
2018-03-30T04:51:14.481Z,24.73
2018-03-30T04:51:46.175Z,23.38
2018-03-30T04:52:17.792Z,23.25
2018-03-30T04:52:49.455Z,22.58
2018-03-30T04:53:21.106Z,22.85
2018-03-30T04:53:52.765Z,22.33
2018-03-30T04:54:24.420Z,23.52
2018-03-30T04:54:56.080Z,22.20
2018-03-30T04:55:27.697Z,23.48
2018-03-30T04:55:59.381Z,22.00
2018-03-30T04:56:31.065Z,21.77
2018-03-30T04:57:02.732Z,23.05
2018-03-30T04:57:34.423Z,22.52
2018-03-30T04:58:06.035Z,22.77
2018-03-30T04:58:37.714Z,22.30
2018-03-30T04:59:09.384Z,22.73
2018-03-30T04:59:41.039Z,23.00
2018-03-30T05:00:12.649Z,23.98
2018-03-30T05:00:44.273Z,22.75
2018-03-30T05:01:15.918Z,23.83
2018-03-30T05:01:47.525Z,22.85
2018-03-30T05:02:19.175Z,22.73
2018-03-30T05:02:50.811Z,22.80
2018-03-30T05:03:22.453Z,23.80
2018-03-30T05:03:54.074Z,23.20
2018-03-30T05:04:25.705Z,23.23
2018-03-30T05:04:57.453Z,22.58
2018-03-30T05:05:29.067Z,22.48
2018-03-30T05:06:00.677Z,21.65
2018-03-30T05:06:32.342Z,21.55
2018-03-30T05:07:03.968Z,22.25
2018-03-30T05:07:35.601Z,22.75
2018-03-30T05:08:07.237Z,22.83
2018-03-30T05:08:38.857Z,22.40
2018-03-30T05:09:10.485Z,22.85
2018-03-30T05:09:42.111Z,21.98
2018-03-30T05:10:13.752Z,22.13
2018-03-30T05:10:45.396Z,22.27
2018-03-30T05:11:17.014Z,24.05
2018-03-30T05:11:48.639Z,22.35
2018-03-30T05:12:20.287Z,22.90
2018-03-30T05:12:51.971Z,22.92
2018-03-30T05:13:23.661Z,22.67
2018-03-30T05:13:55.301Z,22.27
2018-03-30T05:14:26.929Z,23.12
2018-03-30T05:14:58.640Z,21.35
2018-03-30T05:15:30.275Z,23.17
2018-03-30T05:16:01.910Z,22.15
2018-03-30T05:16:33.588Z,21.50
2018-03-30T05:17:05.198Z,22.83
2018-03-30T05:17:36.854Z,21.48
2018-03-30T05:18:08.463Z,21.65
2018-03-30T05:18:40.122Z,21.95
2018-03-30T05:19:11.747Z,21.55
2018-03-30T05:19:43.433Z,20.75
2018-03-30T05:20:15.128Z,23.20
2018-03-30T05:20:46.791Z,22.00
2018-03-30T05:21:18.449Z,22.02
2018-03-30T05:21:50.103Z,21.65
2018-03-30T05:22:21.744Z,21.73
2018-03-30T05:22:53.393Z,23.30
2018-03-30T05:23:25.093Z,21.95
2018-03-30T05:23:56.714Z,22.70
2018-03-30T05:24:28.439Z,21.58
2018-03-30T05:25:00.102Z,22.95
2018-03-30T05:26:18.381Z,23.35
2018-03-30T05:26:50.061Z,22.55
2018-03-30T05:27:21.677Z,20.88
2018-03-30T05:27:53.295Z,22.05
2018-03-30T05:28:24.945Z,23.00
2018-03-30T05:28:56.596Z,22.02
2018-03-30T05:29:28.234Z,21.62
2018-03-30T05:29:59.853Z,21.90
2018-03-30T05:30:31.503Z,22.33
2018-03-30T05:31:03.136Z,22.45
2018-03-30T05:31:34.762Z,21.75
2018-03-30T05:32:06.421Z,23.35
2018-03-30T05:32:38.091Z,22.42
2018-03-30T05:33:09.719Z,21.20
2018-03-30T05:33:41.339Z,21.45
2018-03-30T05:34:13.033Z,21.45
2018-03-30T05:34:44.669Z,21.92
2018-03-30T05:35:16.328Z,22.08
2018-03-30T05:35:47.941Z,22.00
2018-03-30T05:36:19.559Z,21.33
2018-03-30T05:36:51.185Z,21.33
2018-03-30T05:37:22.834Z,20.88
2018-03-30T05:37:54.465Z,20.45
2018-03-30T05:38:26.093Z,21.05
2018-03-30T05:38:57.765Z,20.90
2018-03-30T05:39:29.409Z,20.40
2018-03-30T05:40:01.051Z,20.67
2018-03-30T05:40:32.687Z,21.67
2018-03-30T05:41:04.341Z,21.85
2018-03-30T05:41:36.019Z,21.12
2018-03-30T05:42:07.642Z,21.02
2018-03-30T05:42:39.275Z,21.08
2018-03-30T05:43:10.903Z,20.02
2018-03-30T05:43:42.546Z,21.15
2018-03-30T05:44:14.214Z,20.20
2018-03-30T05:44:45.850Z,21.10
2018-03-30T05:45:17.465Z,20.73
2018-03-30T05:45:49.091Z,20.55
2018-03-30T05:46:20.756Z,20.17
2018-03-30T05:46:52.358Z,19.95
2018-03-30T05:47:23.990Z,21.10
2018-03-30T05:47:55.645Z,19.83
2018-03-30T05:48:27.295Z,21.73
2018-03-30T05:48:58.946Z,20.67
2018-03-30T05:49:30.628Z,19.77
2018-03-30T05:50:02.305Z,19.67
2018-03-30T05:50:33.956Z,21.23
2018-03-30T05:51:05.583Z,20.90
2018-03-30T05:51:37.211Z,20.48
2018-03-30T05:52:08.852Z,20.30
2018-03-30T05:52:40.493Z,19.62
2018-03-30T05:53:12.340Z,20.37
2018-03-30T05:53:43.965Z,20.30
2018-03-30T05:54:15.643Z,20.52
2018-03-30T05:54:47.269Z,20.45
2018-03-30T05:55:18.899Z,19.98
2018-03-30T05:55:50.563Z,19.58
2018-03-30T05:56:22.217Z,19.65
2018-03-30T05:56:53.837Z,18.70
2018-03-30T05:57:25.457Z,18.92
2018-03-30T05:57:57.111Z,19.23
2018-03-30T05:58:28.735Z,19.70
2018-03-30T05:59:00.392Z,18.73
2018-03-30T05:59:32.033Z,19.35
2018-03-30T06:00:06.558Z,19.27
2018-03-30T06:00:38.256Z,19.15
2018-03-30T06:01:09.885Z,18.70
2018-03-30T06:01:41.553Z,18.23
2018-03-30T06:02:13.215Z,19.02
2018-03-30T06:02:44.856Z,19.52
2018-03-30T06:03:16.508Z,18.20
2018-03-30T06:03:48.155Z,17.40
2018-03-30T06:04:19.767Z,19.50
2018-03-30T06:04:51.431Z,18.05
2018-03-30T06:05:23.115Z,18.37
2018-03-30T06:05:54.729Z,18.20
2018-03-30T06:06:26.357Z,18.05
2018-03-30T06:06:57.981Z,18.15
2018-03-30T06:07:29.641Z,17.73
2018-03-30T06:08:01.294Z,17.08
2018-03-30T06:08:32.973Z,16.92
2018-03-30T06:09:04.629Z,18.27
2018-03-30T06:09:36.305Z,18.10
2018-03-30T06:10:07.959Z,18.12
2018-03-30T06:10:39.611Z,17.12
2018-03-30T06:11:11.254Z,16.90
2018-03-30T06:11:42.869Z,18.27
2018-03-30T06:12:14.503Z,17.30
2018-03-30T06:12:46.125Z,16.98
2018-03-30T06:13:17.783Z,17.40
2018-03-30T06:13:49.437Z,17.48
2018-03-30T06:14:21.141Z,16.65
2018-03-30T06:14:52.771Z,17.40
2018-03-30T06:15:24.438Z,17.87
2018-03-30T06:15:56.083Z,16.50
2018-03-30T06:16:27.703Z,16.65
2018-03-30T06:16:59.327Z,16.95
2018-03-30T06:17:31.001Z,16.52
2018-03-30T06:18:02.649Z,18.25
2018-03-30T06:18:34.307Z,15.48
2018-03-30T06:19:06.011Z,17.20
2018-03-30T06:19:37.598Z,16.48
2018-03-30T06:20:09.284Z,16.33
2018-03-30T06:20:40.927Z,16.00
2018-03-30T06:21:12.567Z,16.20
2018-03-30T06:21:44.201Z,16.40
2018-03-30T06:22:15.918Z,15.93
2018-03-30T06:22:47.537Z,16.15
2018-03-30T06:23:19.170Z,14.68
2018-03-30T06:23:50.826Z,15.40
2018-03-30T06:24:22.441Z,16.50
2018-03-30T06:24:54.061Z,14.48
2018-03-30T06:25:25.687Z,16.33
2018-03-30T06:25:57.344Z,15.55
2018-03-30T06:26:29.009Z,15.20
2018-03-30T06:27:00.672Z,14.85
2018-03-30T06:27:32.315Z,15.45
2018-03-30T06:28:03.997Z,15.23
2018-03-30T06:28:35.655Z,15.52
2018-03-30T06:29:07.265Z,15.05
2018-03-30T06:29:38.887Z,14.05
2018-03-30T06:30:10.541Z,14.05
2018-03-30T06:30:42.181Z,14.93
2018-03-30T06:31:13.801Z,14.90
2018-03-30T06:31:45.455Z,14.38
2018-03-30T06:32:17.122Z,13.75
2018-03-30T06:32:48.708Z,14.80
2018-03-30T06:33:20.360Z,14.80
2018-03-30T06:33:52.028Z,14.95
2018-03-30T06:34:23.663Z,14.90
2018-03-30T06:34:55.319Z,14.60
2018-03-30T06:35:26.971Z,15.32
2018-03-30T06:35:58.583Z,13.57
2018-03-30T06:36:30.199Z,14.23
2018-03-30T06:37:01.881Z,14.00
2018-03-30T06:37:33.529Z,14.40
2018-03-30T06:38:05.159Z,13.80
2018-03-30T06:38:36.837Z,14.45
2018-03-30T06:39:08.487Z,14.27
2018-03-30T06:39:40.226Z,13.23
2018-03-30T06:40:11.871Z,12.55
2018-03-30T06:40:43.513Z,13.00
2018-03-30T06:41:15.140Z,12.55
2018-03-30T06:41:46.754Z,13.05
2018-03-30T06:42:18.393Z,13.85
2018-03-30T06:42:50.027Z,12.75
2018-03-30T06:43:21.648Z,13.32
2018-03-30T06:43:53.313Z,12.93
2018-03-30T06:44:24.971Z,11.95
2018-03-30T06:44:56.630Z,13.88
2018-03-30T06:45:28.288Z,12.37
2018-03-30T06:45:59.953Z,12.68
2018-03-30T06:46:31.629Z,12.70
2018-03-30T06:47:03.263Z,11.93
2018-03-30T06:47:34.898Z,11.98
2018-03-30T06:48:06.541Z,12.10
2018-03-30T06:48:38.204Z,12.10
2018-03-30T06:49:09.858Z,12.23
2018-03-30T06:49:41.513Z,12.55